sensor_id;sensor_type;location;lat;lon;timestamp;temperature;humidity
78325;DHT22;67584;51.400;6.692;2024-03-02T00:00:26;7.90;73.20
78325;DHT22;67584;51.400;6.692;2024-03-02T00:02:52;7.90;73.20
78325;DHT22;67584;51.400;6.692;2024-03-02T00:05:20;8.10;73.30
78325;DHT22;67584;51.400;6.692;2024-03-02T00:07:55;8.10;73.10
78325;DHT22;67584;51.400;6.692;2024-03-02T00:10:26;8.10;73.10
78325;DHT22;67584;51.400;6.692;2024-03-02T00:12:56;8.00;73.00
78325;DHT22;67584;51.400;6.692;2024-03-02T00:15:48;8.20;73.10
78325;DHT22;67584;51.400;6.692;2024-03-02T00:18:23;8.30;72.80
78325;DHT22;67584;51.400;6.692;2024-03-02T00:20:56;8.30;72.60
78325;DHT22;67584;51.400;6.692;2024-03-02T00:23:22;8.40;72.60
78325;DHT22;67584;51.400;6.692;2024-03-02T00:25:52;8.40;72.60
78325;DHT22;67584;51.400;6.692;2024-03-02T00:28:25;8.50;72.60
78325;DHT22;67584;51.400;6.692;2024-03-02T00:33:36;8.60;72.10
78325;DHT22;67584;51.400;6.692;2024-03-02T00:36:02;8.60;72.10
78325;DHT22;67584;51.400;6.692;2024-03-02T00:38:33;8.40;72.20
78325;DHT22;67584;51.400;6.692;2024-03-02T00:41:04;8.50;72.00
78325;DHT22;67584;51.400;6.692;2024-03-02T00:43:43;8.70;71.90
78325;DHT22;67584;51.400;6.692;2024-03-02T00:46:12;8.60;72.10
78325;DHT22;67584;51.400;6.692;2024-03-02T00:48:40;8.60;72.00
78325;DHT22;67584;51.400;6.692;2024-03-02T00:51:11;8.60;71.90
78325;DHT22;67584;51.400;6.692;2024-03-02T00:53:37;8.70;71.70
78325;DHT22;67584;51.400;6.692;2024-03-02T00:56:03;8.70;71.70
78325;DHT22;67584;51.400;6.692;2024-03-02T00:58:28;8.70;71.70
78325;DHT22;67584;51.400;6.692;2024-03-02T01:00:54;8.70;71.50
78325;DHT22;67584;51.400;6.692;2024-03-02T01:03:21;8.80;71.50
78325;DHT22;67584;51.400;6.692;2024-03-02T01:05:47;8.80;71.70
78325;DHT22;67584;51.400;6.692;2024-03-02T01:08:12;8.80;71.60
78325;DHT22;67584;51.400;6.692;2024-03-02T01:10:38;8.70;71.90
78325;DHT22;67584;51.400;6.692;2024-03-02T01:13:04;8.70;72.30
78325;DHT22;67584;51.400;6.692;2024-03-02T01:15:29;8.60;72.10
78325;DHT22;67584;51.400;6.692;2024-03-02T01:17:55;8.50;72.30
78325;DHT22;67584;51.400;6.692;2024-03-02T01:20:21;8.50;72.20
78325;DHT22;67584;51.400;6.692;2024-03-02T01:22:47;8.50;72.40
78325;DHT22;67584;51.400;6.692;2024-03-02T01:25:13;8.40;72.40
78325;DHT22;67584;51.400;6.692;2024-03-02T01:27:39;8.50;72.70
78325;DHT22;67584;51.400;6.692;2024-03-02T01:30:05;8.40;72.70
78325;DHT22;67584;51.400;6.692;2024-03-02T01:32:31;8.30;72.90
78325;DHT22;67584;51.400;6.692;2024-03-02T01:34:57;8.20;73.20
78325;DHT22;67584;51.400;6.692;2024-03-02T01:37:22;8.20;73.40
78325;DHT22;67584;51.400;6.692;2024-03-02T01:39:48;8.40;72.80
78325;DHT22;67584;51.400;6.692;2024-03-02T01:42:14;8.40;72.70
78325;DHT22;67584;51.400;6.692;2024-03-02T01:44:40;8.30;72.80
78325;DHT22;67584;51.400;6.692;2024-03-02T01:47:06;8.40;72.70
78325;DHT22;67584;51.400;6.692;2024-03-02T01:49:32;8.50;72.30
78325;DHT22;67584;51.400;6.692;2024-03-02T01:51:59;8.70;71.80
78325;DHT22;67584;51.400;6.692;2024-03-02T01:54:25;8.80;71.30
78325;DHT22;67584;51.400;6.692;2024-03-02T01:56:51;8.80;71.50
78325;DHT22;67584;51.400;6.692;2024-03-02T01:59:17;8.80;71.20
78325;DHT22;67584;51.400;6.692;2024-03-02T02:01:43;8.90;71.00
78325;DHT22;67584;51.400;6.692;2024-03-02T02:04:08;9.00;70.60
78325;DHT22;67584;51.400;6.692;2024-03-02T02:06:34;9.10;69.80
78325;DHT22;67584;51.400;6.692;2024-03-02T02:09:00;9.20;69.20
78325;DHT22;67584;51.400;6.692;2024-03-02T02:11:26;9.40;69.30
78325;DHT22;67584;51.400;6.692;2024-03-02T02:13:52;9.30;69.00
78325;DHT22;67584;51.400;6.692;2024-03-02T02:16:17;9.30;68.90
78325;DHT22;67584;51.400;6.692;2024-03-02T02:18:43;9.30;69.00
78325;DHT22;67584;51.400;6.692;2024-03-02T02:21:09;9.30;68.50
78325;DHT22;67584;51.400;6.692;2024-03-02T02:23:34;9.20;68.50
78325;DHT22;67584;51.400;6.692;2024-03-02T02:26:00;9.20;68.80
78325;DHT22;67584;51.400;6.692;2024-03-02T02:28:28;9.30;68.70
78325;DHT22;67584;51.400;6.692;2024-03-02T02:30:54;9.20;69.00
78325;DHT22;67584;51.400;6.692;2024-03-02T02:33:21;9.30;69.00
78325;DHT22;67584;51.400;6.692;2024-03-02T02:35:47;9.30;69.00
78325;DHT22;67584;51.400;6.692;2024-03-02T02:38:13;9.20;69.20
78325;DHT22;67584;51.400;6.692;2024-03-02T02:40:38;9.20;68.90
78325;DHT22;67584;51.400;6.692;2024-03-02T02:43:04;9.10;69.10
78325;DHT22;67584;51.400;6.692;2024-03-02T02:45:30;9.10;69.30
78325;DHT22;67584;51.400;6.692;2024-03-02T02:47:56;9.00;70.00
78325;DHT22;67584;51.400;6.692;2024-03-02T02:50:21;8.90;70.30
78325;DHT22;67584;51.400;6.692;2024-03-02T02:52:47;8.80;71.00
78325;DHT22;67584;51.400;6.692;2024-03-02T02:55:13;8.70;71.60
78325;DHT22;67584;51.400;6.692;2024-03-02T02:57:41;8.70;71.80
78325;DHT22;67584;51.400;6.692;2024-03-02T03:00:08;8.60;71.80
78325;DHT22;67584;51.400;6.692;2024-03-02T03:02:39;8.60;72.10
78325;DHT22;67584;51.400;6.692;2024-03-02T03:05:06;8.60;72.40
78325;DHT22;67584;51.400;6.692;2024-03-02T03:07:32;8.50;72.50
78325;DHT22;67584;51.400;6.692;2024-03-02T03:09:59;8.60;72.80
78325;DHT22;67584;51.400;6.692;2024-03-02T03:12:25;8.50;72.90
78325;DHT22;67584;51.400;6.692;2024-03-02T03:14:50;8.50;73.10
78325;DHT22;67584;51.400;6.692;2024-03-02T03:17:16;8.40;73.30
78325;DHT22;67584;51.400;6.692;2024-03-02T03:19:42;8.40;73.60
78325;DHT22;67584;51.400;6.692;2024-03-02T03:22:08;8.30;73.60
78325;DHT22;67584;51.400;6.692;2024-03-02T03:24:34;8.30;73.70
78325;DHT22;67584;51.400;6.692;2024-03-02T03:26:59;8.30;73.70
78325;DHT22;67584;51.400;6.692;2024-03-02T03:29:25;8.30;73.60
78325;DHT22;67584;51.400;6.692;2024-03-02T03:31:51;8.40;73.50
78325;DHT22;67584;51.400;6.692;2024-03-02T03:34:16;8.30;73.70
78325;DHT22;67584;51.400;6.692;2024-03-02T03:36:42;8.30;73.70
78325;DHT22;67584;51.400;6.692;2024-03-02T03:39:08;8.20;73.90
78325;DHT22;67584;51.400;6.692;2024-03-02T03:41:34;8.30;74.10
78325;DHT22;67584;51.400;6.692;2024-03-02T03:44:00;8.20;74.10
78325;DHT22;67584;51.400;6.692;2024-03-02T03:46:25;8.20;74.20
78325;DHT22;67584;51.400;6.692;2024-03-02T03:48:51;8.10;74.30
78325;DHT22;67584;51.400;6.692;2024-03-02T03:51:17;8.10;74.50
78325;DHT22;67584;51.400;6.692;2024-03-02T03:53:42;8.20;74.80
78325;DHT22;67584;51.400;6.692;2024-03-02T03:56:08;8.20;75.10
78325;DHT22;67584;51.400;6.692;2024-03-02T03:58:34;8.00;75.10
78325;DHT22;67584;51.400;6.692;2024-03-02T04:00:59;8.10;75.20
78325;DHT22;67584;51.400;6.692;2024-03-02T04:03:25;8.10;75.50
78325;DHT22;67584;51.400;6.692;2024-03-02T04:05:51;7.80;75.90
78325;DHT22;67584;51.400;6.692;2024-03-02T04:08:16;7.80;76.30
78325;DHT22;67584;51.400;6.692;2024-03-02T04:10:42;7.80;76.40
78325;DHT22;67584;51.400;6.692;2024-03-02T04:13:08;7.80;76.70
78325;DHT22;67584;51.400;6.692;2024-03-02T04:15:33;7.60;77.00
78325;DHT22;67584;51.400;6.692;2024-03-02T04:17:59;7.50;77.40
78325;DHT22;67584;51.400;6.692;2024-03-02T04:20:25;7.40;77.90
78325;DHT22;67584;51.400;6.692;2024-03-02T04:22:51;7.50;78.10
78325;DHT22;67584;51.400;6.692;2024-03-02T04:25:16;7.40;78.10
78325;DHT22;67584;51.400;6.692;2024-03-02T04:27:42;7.50;77.70
78325;DHT22;67584;51.400;6.692;2024-03-02T04:30:09;7.60;77.60
78325;DHT22;67584;51.400;6.692;2024-03-02T04:32:35;7.60;77.10
78325;DHT22;67584;51.400;6.692;2024-03-02T04:35:01;7.60;77.20
78325;DHT22;67584;51.400;6.692;2024-03-02T04:37:27;7.40;77.10
78325;DHT22;67584;51.400;6.692;2024-03-02T04:39:53;7.60;77.10
78325;DHT22;67584;51.400;6.692;2024-03-02T04:42:19;7.50;77.30
78325;DHT22;67584;51.400;6.692;2024-03-02T04:44:44;7.40;77.40
78325;DHT22;67584;51.400;6.692;2024-03-02T04:47:10;7.50;77.50
78325;DHT22;67584;51.400;6.692;2024-03-02T04:49:36;7.30;77.60
78325;DHT22;67584;51.400;6.692;2024-03-02T04:52:01;7.50;77.40
78325;DHT22;67584;51.400;6.692;2024-03-02T04:54:27;7.20;77.20
78325;DHT22;67584;51.400;6.692;2024-03-02T04:56:53;7.30;77.20
78325;DHT22;67584;51.400;6.692;2024-03-02T04:59:19;7.20;77.70
78325;DHT22;67584;51.400;6.692;2024-03-02T05:01:45;7.00;77.70
78325;DHT22;67584;51.400;6.692;2024-03-02T05:04:11;6.90;78.10
78325;DHT22;67584;51.400;6.692;2024-03-02T05:06:41;6.80;78.30
78325;DHT22;67584;51.400;6.692;2024-03-02T05:09:07;6.80;78.40
78325;DHT22;67584;51.400;6.692;2024-03-02T05:11:33;6.90;78.70
78325;DHT22;67584;51.400;6.692;2024-03-02T05:14:07;6.80;78.70
78325;DHT22;67584;51.400;6.692;2024-03-02T05:16:36;6.90;78.50
78325;DHT22;67584;51.400;6.692;2024-03-02T05:19:06;6.80;78.80
78325;DHT22;67584;51.400;6.692;2024-03-02T05:21:32;6.90;78.50
78325;DHT22;67584;51.400;6.692;2024-03-02T05:23:59;7.10;78.30
78325;DHT22;67584;51.400;6.692;2024-03-02T05:26:25;6.90;78.30
78325;DHT22;67584;51.400;6.692;2024-03-02T05:28:50;7.00;77.90
78325;DHT22;67584;51.400;6.692;2024-03-02T05:31:17;7.20;77.80
78325;DHT22;67584;51.400;6.692;2024-03-02T05:33:43;7.10;77.60
78325;DHT22;67584;51.400;6.692;2024-03-02T05:36:09;7.30;77.50
78325;DHT22;67584;51.400;6.692;2024-03-02T05:38:35;7.30;77.50
78325;DHT22;67584;51.400;6.692;2024-03-02T05:41:01;7.50;77.20
78325;DHT22;67584;51.400;6.692;2024-03-02T05:43:26;7.50;76.90
78325;DHT22;67584;51.400;6.692;2024-03-02T05:45:52;7.60;76.80
78325;DHT22;67584;51.400;6.692;2024-03-02T05:48:18;7.60;76.70
78325;DHT22;67584;51.400;6.692;2024-03-02T05:50:43;7.60;76.60
78325;DHT22;67584;51.400;6.692;2024-03-02T05:53:09;7.90;76.20
78325;DHT22;67584;51.400;6.692;2024-03-02T05:55:35;7.80;76.00
78325;DHT22;67584;51.400;6.692;2024-03-02T05:58:00;7.80;75.80
78325;DHT22;67584;51.400;6.692;2024-03-02T06:00:32;7.80;75.90
78325;DHT22;67584;51.400;6.692;2024-03-02T06:02:58;7.90;75.60
78325;DHT22;67584;51.400;6.692;2024-03-02T06:05:24;7.80;75.80
78325;DHT22;67584;51.400;6.692;2024-03-02T06:07:50;7.80;75.60
78325;DHT22;67584;51.400;6.692;2024-03-02T06:10:16;7.80;76.00
78325;DHT22;67584;51.400;6.692;2024-03-02T06:12:42;7.70;76.00
78325;DHT22;67584;51.400;6.692;2024-03-02T06:15:09;7.50;76.10
78325;DHT22;67584;51.400;6.692;2024-03-02T06:17:35;7.70;75.90
78325;DHT22;67584;51.400;6.692;2024-03-02T06:20:01;7.90;75.90
78325;DHT22;67584;51.400;6.692;2024-03-02T06:22:26;7.60;76.00
78325;DHT22;67584;51.400;6.692;2024-03-02T06:24:52;7.80;75.70
78325;DHT22;67584;51.400;6.692;2024-03-02T06:27:18;7.80;75.80
78325;DHT22;67584;51.400;6.692;2024-03-02T06:29:43;7.80;75.80
78325;DHT22;67584;51.400;6.692;2024-03-02T06:32:09;7.50;75.90
78325;DHT22;67584;51.400;6.692;2024-03-02T06:34:35;7.50;76.10
78325;DHT22;67584;51.400;6.692;2024-03-02T06:37:00;7.40;76.10
78325;DHT22;67584;51.400;6.692;2024-03-02T06:39:26;7.40;76.20
78325;DHT22;67584;51.400;6.692;2024-03-02T06:41:52;7.60;76.10
78325;DHT22;67584;51.400;6.692;2024-03-02T06:44:17;7.70;76.20
78325;DHT22;67584;51.400;6.692;2024-03-02T06:46:43;7.70;76.30
78325;DHT22;67584;51.400;6.692;2024-03-02T06:49:09;7.70;75.60
78325;DHT22;67584;51.400;6.692;2024-03-02T06:51:36;7.70;75.60
78325;DHT22;67584;51.400;6.692;2024-03-02T06:54:06;7.90;75.10
78325;DHT22;67584;51.400;6.692;2024-03-02T06:56:35;7.90;74.60
78325;DHT22;67584;51.400;6.692;2024-03-02T06:59:05;8.00;74.50
78325;DHT22;67584;51.400;6.692;2024-03-02T07:01:34;8.10;74.20
78325;DHT22;67584;51.400;6.692;2024-03-02T07:04:09;8.10;74.20
78325;DHT22;67584;51.400;6.692;2024-03-02T07:06:37;8.20;73.80
78325;DHT22;67584;51.400;6.692;2024-03-02T07:09:05;8.30;73.50
78325;DHT22;67584;51.400;6.692;2024-03-02T07:11:35;8.40;73.30
78325;DHT22;67584;51.400;6.692;2024-03-02T07:14:03;8.40;73.20
78325;DHT22;67584;51.400;6.692;2024-03-02T07:16:28;8.50;73.30
78325;DHT22;67584;51.400;6.692;2024-03-02T07:18:55;8.60;73.00
78325;DHT22;67584;51.400;6.692;2024-03-02T07:21:22;8.50;73.10
78325;DHT22;67584;51.400;6.692;2024-03-02T07:23:48;8.50;73.20
78325;DHT22;67584;51.400;6.692;2024-03-02T07:26:14;8.70;72.80
78325;DHT22;67584;51.400;6.692;2024-03-02T07:28:46;8.70;72.80
78325;DHT22;67584;51.400;6.692;2024-03-02T07:31:13;8.70;72.60
78325;DHT22;67584;51.400;6.692;2024-03-02T07:33:39;8.80;72.10
78325;DHT22;67584;51.400;6.692;2024-03-02T07:36:05;8.80;72.50
78325;DHT22;67584;51.400;6.692;2024-03-02T07:38:31;8.90;72.60
78325;DHT22;67584;51.400;6.692;2024-03-02T07:40:57;9.00;72.50
78325;DHT22;67584;51.400;6.692;2024-03-02T07:43:23;9.00;71.80
78325;DHT22;67584;51.400;6.692;2024-03-02T07:45:49;9.00;71.50
78325;DHT22;67584;51.400;6.692;2024-03-02T07:48:15;9.10;71.90
78325;DHT22;67584;51.400;6.692;2024-03-02T07:50:40;9.20;71.20
78325;DHT22;67584;51.400;6.692;2024-03-02T07:53:07;9.10;71.60
78325;DHT22;67584;51.400;6.692;2024-03-02T07:55:34;9.10;71.90
78325;DHT22;67584;51.400;6.692;2024-03-02T07:58:00;9.00;72.10
78325;DHT22;67584;51.400;6.692;2024-03-02T08:00:26;8.80;72.30
78325;DHT22;67584;51.400;6.692;2024-03-02T08:02:53;8.80;72.70
78325;DHT22;67584;51.400;6.692;2024-03-02T08:05:19;8.50;72.70
78325;DHT22;67584;51.400;6.692;2024-03-02T08:07:45;8.70;73.00
78325;DHT22;67584;51.400;6.692;2024-03-02T08:10:12;8.70;73.10
78325;DHT22;67584;51.400;6.692;2024-03-02T08:12:38;8.70;73.10
78325;DHT22;67584;51.400;6.692;2024-03-02T08:15:04;8.80;73.10
78325;DHT22;67584;51.400;6.692;2024-03-02T08:17:31;8.80;73.30
78325;DHT22;67584;51.400;6.692;2024-03-02T08:19:57;8.80;73.30
78325;DHT22;67584;51.400;6.692;2024-03-02T08:22:23;8.80;73.10
78325;DHT22;67584;51.400;6.692;2024-03-02T08:24:51;8.90;72.90
78325;DHT22;67584;51.400;6.692;2024-03-02T08:27:17;9.10;72.80
78325;DHT22;67584;51.400;6.692;2024-03-02T08:29:42;9.10;72.30
78325;DHT22;67584;51.400;6.692;2024-03-02T08:32:08;9.40;71.50
78325;DHT22;67584;51.400;6.692;2024-03-02T08:34:34;9.50;71.30
78325;DHT22;67584;51.400;6.692;2024-03-02T08:37:04;9.50;71.20
78325;DHT22;67584;51.400;6.692;2024-03-02T08:39:30;9.40;71.10
78325;DHT22;67584;51.400;6.692;2024-03-02T08:41:56;9.50;71.90
78325;DHT22;67584;51.400;6.692;2024-03-02T08:44:22;9.50;70.80
78325;DHT22;67584;51.400;6.692;2024-03-02T08:46:48;9.50;71.00
78325;DHT22;67584;51.400;6.692;2024-03-02T08:49:17;9.50;70.90
78325;DHT22;67584;51.400;6.692;2024-03-02T08:51:42;9.80;71.20
78325;DHT22;67584;51.400;6.692;2024-03-02T08:54:08;9.80;70.60
78325;DHT22;67584;51.400;6.692;2024-03-02T08:56:34;9.90;69.90
78325;DHT22;67584;51.400;6.692;2024-03-02T08:59:00;10.00;68.90
78325;DHT22;67584;51.400;6.692;2024-03-02T09:01:30;10.10;68.80
78325;DHT22;67584;51.400;6.692;2024-03-02T09:03:56;10.30;68.80
78325;DHT22;67584;51.400;6.692;2024-03-02T09:06:21;10.40;68.10
78325;DHT22;67584;51.400;6.692;2024-03-02T09:08:47;10.40;68.10
78325;DHT22;67584;51.400;6.692;2024-03-02T09:11:15;10.70;67.60
78325;DHT22;67584;51.400;6.692;2024-03-02T09:13:40;11.00;67.20
78325;DHT22;67584;51.400;6.692;2024-03-02T09:16:06;11.10;65.70
78325;DHT22;67584;51.400;6.692;2024-03-02T09:18:33;11.40;65.50
78325;DHT22;67584;51.400;6.692;2024-03-02T09:20:58;12.00;64.80
78325;DHT22;67584;51.400;6.692;2024-03-02T09:23:24;12.20;63.10
78325;DHT22;67584;51.400;6.692;2024-03-02T09:25:49;12.60;62.30
78325;DHT22;67584;51.400;6.692;2024-03-02T09:28:16;12.70;60.80
78325;DHT22;67584;51.400;6.692;2024-03-02T09:30:41;12.10;62.20
78325;DHT22;67584;51.400;6.692;2024-03-02T09:33:07;12.20;62.80
78325;DHT22;67584;51.400;6.692;2024-03-02T09:35:33;12.10;61.60
78325;DHT22;67584;51.400;6.692;2024-03-02T09:37:58;12.30;62.20
78325;DHT22;67584;51.400;6.692;2024-03-02T09:40:24;12.40;61.50
78325;DHT22;67584;51.400;6.692;2024-03-02T09:42:51;13.10;60.00
78325;DHT22;67584;51.400;6.692;2024-03-02T09:45:23;13.90;57.00
78325;DHT22;67584;51.400;6.692;2024-03-02T09:47:49;14.30;54.70
78325;DHT22;67584;51.400;6.692;2024-03-02T09:50:15;15.20;52.40
78325;DHT22;67584;51.400;6.692;2024-03-02T09:52:48;15.30;52.20
78325;DHT22;67584;51.400;6.692;2024-03-02T09:55:15;16.10;49.90
78325;DHT22;67584;51.400;6.692;2024-03-02T09:57:41;15.70;50.50
78325;DHT22;67584;51.400;6.692;2024-03-02T10:00:08;15.00;51.90
78325;DHT22;67584;51.400;6.692;2024-03-02T10:02:34;15.70;49.90
78325;DHT22;67584;51.400;6.692;2024-03-02T10:04:59;16.10;47.40
78325;DHT22;67584;51.400;6.692;2024-03-02T10:07:25;16.20;47.60
78325;DHT22;67584;51.400;6.692;2024-03-02T10:09:51;16.50;48.10
78325;DHT22;67584;51.400;6.692;2024-03-02T10:12:18;16.70;46.40
78325;DHT22;67584;51.400;6.692;2024-03-02T10:14:44;15.90;47.30
78325;DHT22;67584;51.400;6.692;2024-03-02T10:17:12;15.60;48.60
78325;DHT22;67584;51.400;6.692;2024-03-02T10:19:39;16.30;47.70
78325;DHT22;67584;51.400;6.692;2024-03-02T10:22:06;17.10;45.30
78325;DHT22;67584;51.400;6.692;2024-03-02T10:24:42;17.30;45.80
78325;DHT22;67584;51.400;6.692;2024-03-02T10:27:16;17.80;44.80
78325;DHT22;67584;51.400;6.692;2024-03-02T10:29:45;17.60;45.40
78325;DHT22;67584;51.400;6.692;2024-03-02T10:32:11;17.90;44.60
78325;DHT22;67584;51.400;6.692;2024-03-02T10:34:41;18.20;43.90
78325;DHT22;67584;51.400;6.692;2024-03-02T10:37:07;18.30;44.10
78325;DHT22;67584;51.400;6.692;2024-03-02T10:39:35;18.80;42.50
78325;DHT22;67584;51.400;6.692;2024-03-02T10:42:02;19.00;42.40
78325;DHT22;67584;51.400;6.692;2024-03-02T10:44:29;18.70;42.40
78325;DHT22;67584;51.400;6.692;2024-03-02T10:46:56;18.40;43.40
78325;DHT22;67584;51.400;6.692;2024-03-02T10:49:23;18.90;42.70
78325;DHT22;67584;51.400;6.692;2024-03-02T10:51:50;18.80;42.10
78325;DHT22;67584;51.400;6.692;2024-03-02T10:54:16;18.00;43.60
78325;DHT22;67584;51.400;6.692;2024-03-02T10:56:44;17.80;44.20
78325;DHT22;67584;51.400;6.692;2024-03-02T10:59:26;17.70;44.60
78325;DHT22;67584;51.400;6.692;2024-03-02T11:01:58;18.20;43.70
78325;DHT22;67584;51.400;6.692;2024-03-02T11:04:28;18.80;42.70
78325;DHT22;67584;51.400;6.692;2024-03-02T11:07:02;19.50;41.50
78325;DHT22;67584;51.400;6.692;2024-03-02T11:09:29;19.40;40.20
78325;DHT22;67584;51.400;6.692;2024-03-02T11:12:36;18.60;41.90
78325;DHT22;67584;51.400;6.692;2024-03-02T11:15:06;18.60;42.60
78325;DHT22;67584;51.400;6.692;2024-03-02T11:17:34;19.40;41.40
78325;DHT22;67584;51.400;6.692;2024-03-02T11:20:00;19.30;40.30
78325;DHT22;67584;51.400;6.692;2024-03-02T11:22:26;19.40;40.80
78325;DHT22;67584;51.400;6.692;2024-03-02T11:24:52;19.60;39.20
78325;DHT22;67584;51.400;6.692;2024-03-02T11:33:05;18.90;41.30
78325;DHT22;67584;51.400;6.692;2024-03-02T11:35:37;19.90;39.70
78325;DHT22;67584;51.400;6.692;2024-03-02T11:38:04;20.60;38.20
78325;DHT22;67584;51.400;6.692;2024-03-02T11:40:30;21.10;37.00
78325;DHT22;67584;51.400;6.692;2024-03-02T11:42:57;21.10;37.50
78325;DHT22;67584;51.400;6.692;2024-03-02T11:45:28;21.40;37.30
78325;DHT22;67584;51.400;6.692;2024-03-02T11:47:55;20.50;38.40
78325;DHT22;67584;51.400;6.692;2024-03-02T11:50:36;19.80;39.70
78325;DHT22;67584;51.400;6.692;2024-03-02T11:53:06;19.50;40.80
78325;DHT22;67584;51.400;6.692;2024-03-02T11:55:35;19.40;40.10
78325;DHT22;67584;51.400;6.692;2024-03-02T11:58:03;20.30;40.00
78325;DHT22;67584;51.400;6.692;2024-03-02T12:00:29;20.90;37.60
78325;DHT22;67584;51.400;6.692;2024-03-02T12:03:03;21.90;37.10
78325;DHT22;67584;51.400;6.692;2024-03-02T12:05:30;22.50;35.70
78325;DHT22;67584;51.400;6.692;2024-03-02T12:08:00;20.10;38.40
78325;DHT22;67584;51.400;6.692;2024-03-02T12:10:26;18.80;41.80
78325;DHT22;67584;51.400;6.692;2024-03-02T12:13:06;19.70;39.30
78325;DHT22;67584;51.400;6.692;2024-03-02T12:15:34;19.50;40.50
78325;DHT22;67584;51.400;6.692;2024-03-02T12:18:01;19.20;41.20
78325;DHT22;67584;51.400;6.692;2024-03-02T12:20:28;18.60;42.50
78325;DHT22;67584;51.400;6.692;2024-03-02T12:22:57;18.20;43.50
78325;DHT22;67584;51.400;6.692;2024-03-02T12:25:23;17.80;44.00
78325;DHT22;67584;51.400;6.692;2024-03-02T12:27:52;17.60;44.30
78325;DHT22;67584;51.400;6.692;2024-03-02T12:30:19;17.50;44.20
78325;DHT22;67584;51.400;6.692;2024-03-02T12:32:45;17.10;45.20
78325;DHT22;67584;51.400;6.692;2024-03-02T12:35:12;16.70;46.10
78325;DHT22;67584;51.400;6.692;2024-03-02T12:37:45;16.50;47.50
78325;DHT22;67584;51.400;6.692;2024-03-02T12:40:12;17.10;46.50
78325;DHT22;67584;51.400;6.692;2024-03-02T12:42:41;17.90;44.80
78325;DHT22;67584;51.400;6.692;2024-03-02T12:45:08;18.20;44.20
78325;DHT22;67584;51.400;6.692;2024-03-02T12:47:34;18.20;43.70
78325;DHT22;67584;51.400;6.692;2024-03-02T12:50:00;18.20;43.40
78325;DHT22;67584;51.400;6.692;2024-03-02T12:52:26;18.10;44.20
78325;DHT22;67584;51.400;6.692;2024-03-02T12:54:52;18.10;44.00
78325;DHT22;67584;51.400;6.692;2024-03-02T12:57:18;18.30;43.30
78325;DHT22;67584;51.400;6.692;2024-03-02T12:59:47;18.30;43.40
78325;DHT22;67584;51.400;6.692;2024-03-02T13:02:19;18.10;44.50
78325;DHT22;67584;51.400;6.692;2024-03-02T13:04:52;17.30;45.20
78325;DHT22;67584;51.400;6.692;2024-03-02T13:07:19;17.50;45.30
78325;DHT22;67584;51.400;6.692;2024-03-02T13:09:45;17.50;45.60
78325;DHT22;67584;51.400;6.692;2024-03-02T13:12:11;17.50;44.90
78325;DHT22;67584;51.400;6.692;2024-03-02T13:14:37;17.70;44.90
78325;DHT22;67584;51.400;6.692;2024-03-02T13:17:03;17.10;46.20
78325;DHT22;67584;51.400;6.692;2024-03-02T13:19:31;17.30;45.70
78325;DHT22;67584;51.400;6.692;2024-03-02T13:21:57;17.40;46.00
78325;DHT22;67584;51.400;6.692;2024-03-02T13:24:23;18.00;44.60
78325;DHT22;67584;51.400;6.692;2024-03-02T13:26:55;18.30;44.60
78325;DHT22;67584;51.400;6.692;2024-03-02T13:29:22;18.20;43.80
78325;DHT22;67584;51.400;6.692;2024-03-02T13:31:47;18.10;44.60
78325;DHT22;67584;51.400;6.692;2024-03-02T13:34:13;17.50;45.80
78325;DHT22;67584;51.400;6.692;2024-03-02T13:36:39;17.30;46.20
78325;DHT22;67584;51.400;6.692;2024-03-02T13:39:05;17.20;46.10
78325;DHT22;67584;51.400;6.692;2024-03-02T13:41:32;17.30;46.10
78325;DHT22;67584;51.400;6.692;2024-03-02T13:43:57;16.80;47.30
78325;DHT22;67584;51.400;6.692;2024-03-02T13:46:27;16.50;47.80
78325;DHT22;67584;51.400;6.692;2024-03-02T13:48:53;16.50;48.60
78325;DHT22;67584;51.400;6.692;2024-03-02T13:51:18;16.30;48.40
78325;DHT22;67584;51.400;6.692;2024-03-02T13:53:44;16.00;48.90
78325;DHT22;67584;51.400;6.692;2024-03-02T13:56:09;15.60;49.90
78325;DHT22;67584;51.400;6.692;2024-03-02T13:58:35;15.90;49.40
78325;DHT22;67584;51.400;6.692;2024-03-02T14:01:01;16.10;48.90
78325;DHT22;67584;51.400;6.692;2024-03-02T14:03:29;16.20;48.50
78325;DHT22;67584;51.400;6.692;2024-03-02T14:05:55;16.60;47.90
78325;DHT22;67584;51.400;6.692;2024-03-02T14:08:21;16.90;47.20
78325;DHT22;67584;51.400;6.692;2024-03-02T14:10:47;16.80;47.30
78325;DHT22;67584;51.400;6.692;2024-03-02T14:13:12;16.70;46.80
78325;DHT22;67584;51.400;6.692;2024-03-02T14:15:38;16.40;47.40
78325;DHT22;67584;51.400;6.692;2024-03-02T14:18:06;16.40;47.80
78325;DHT22;67584;51.400;6.692;2024-03-02T14:20:31;16.30;47.60
78325;DHT22;67584;51.400;6.692;2024-03-02T14:23:01;16.30;47.60
78325;DHT22;67584;51.400;6.692;2024-03-02T14:25:28;16.50;47.60
78325;DHT22;67584;51.400;6.692;2024-03-02T14:27:57;16.60;47.50
78325;DHT22;67584;51.400;6.692;2024-03-02T14:30:23;16.50;48.00
78325;DHT22;67584;51.400;6.692;2024-03-02T14:32:49;16.50;47.60
78325;DHT22;67584;51.400;6.692;2024-03-02T14:35:15;16.30;47.90
78325;DHT22;67584;51.400;6.692;2024-03-02T14:37:40;16.20;48.30
78325;DHT22;67584;51.400;6.692;2024-03-02T14:40:07;16.50;48.00
78325;DHT22;67584;51.400;6.692;2024-03-02T14:42:35;16.60;47.40
78325;DHT22;67584;51.400;6.692;2024-03-02T14:45:02;16.90;47.30
78325;DHT22;67584;51.400;6.692;2024-03-02T14:47:33;17.80;45.00
78325;DHT22;67584;51.400;6.692;2024-03-02T14:50:01;18.10;44.30
78325;DHT22;67584;51.400;6.692;2024-03-02T14:52:32;18.00;44.80
78325;DHT22;67584;51.400;6.692;2024-03-02T14:54:58;17.50;45.30
78325;DHT22;67584;51.400;6.692;2024-03-02T14:57:24;17.10;46.20
78325;DHT22;67584;51.400;6.692;2024-03-02T14:59:50;17.00;46.30
78325;DHT22;67584;51.400;6.692;2024-03-02T15:02:15;16.70;47.40
78325;DHT22;67584;51.400;6.692;2024-03-02T15:04:41;16.60;47.50
78325;DHT22;67584;51.400;6.692;2024-03-02T15:07:10;16.70;47.40
78325;DHT22;67584;51.400;6.692;2024-03-02T15:09:39;16.70;47.20
78325;DHT22;67584;51.400;6.692;2024-03-02T15:12:08;16.70;47.10
78325;DHT22;67584;51.400;6.692;2024-03-02T15:14:38;16.90;47.10
78325;DHT22;67584;51.400;6.692;2024-03-02T15:17:12;17.10;46.80
78325;DHT22;67584;51.400;6.692;2024-03-02T15:19:44;17.20;46.30
78325;DHT22;67584;51.400;6.692;2024-03-02T15:22:10;17.80;45.30
78325;DHT22;67584;51.400;6.692;2024-03-02T15:24:37;18.90;43.20
78325;DHT22;67584;51.400;6.692;2024-03-02T15:27:04;19.80;41.80
78325;DHT22;67584;51.400;6.692;2024-03-02T15:29:31;20.90;39.60
78325;DHT22;67584;51.400;6.692;2024-03-02T15:31:58;21.30;38.00
78325;DHT22;67584;51.400;6.692;2024-03-02T15:34:27;21.60;37.60
78325;DHT22;67584;51.400;6.692;2024-03-02T15:36:59;22.00;36.80
78325;DHT22;67584;51.400;6.692;2024-03-02T15:39:26;21.10;37.90
78325;DHT22;67584;51.400;6.692;2024-03-02T15:41:52;20.10;38.90
78325;DHT22;67584;51.400;6.692;2024-03-02T15:44:18;20.60;38.40
78325;DHT22;67584;51.400;6.692;2024-03-02T15:46:44;20.80;38.30